createdAt,value
2018-12-07T00:00:09.978Z,1007.41
2018-12-07T00:01:10.982Z,1007.36
2018-12-07T00:02:55.762Z,1007.38
2018-12-07T00:05:35.128Z,1007.27
2018-12-07T00:06:44.779Z,1007.22
2018-12-07T00:08:39.600Z,1007.22
2018-12-07T00:09:39.585Z,1007.22
2018-12-07T00:10:39.571Z,1007.19
2018-12-07T00:11:47.226Z,1007.20
2018-12-07T00:12:39.561Z,1007.09
2018-12-07T00:13:48.213Z,1007.11
2018-12-07T00:15:53.035Z,1007.14
2018-12-07T00:16:52.679Z,1007.10
2018-12-07T00:18:48.507Z,1007.05
2018-12-07T00:19:48.504Z,1007.05
2018-12-07T00:20:57.141Z,1007.02
2018-12-07T00:22:50.956Z,1006.96
2018-12-07T00:23:50.544Z,1006.98
2018-12-07T00:25:47.385Z,1006.97
2018-12-07T00:26:56.013Z,1007.00
2018-12-07T00:28:51.861Z,1006.93
2018-12-07T00:30:00.476Z,1006.89
2018-12-07T00:31:56.322Z,1006.93
2018-12-07T00:32:56.301Z,1006.92
2018-12-07T00:33:56.298Z,1006.89
2018-12-07T00:34:56.298Z,1006.87
2018-12-07T00:35:56.293Z,1006.87
2018-12-07T00:36:56.285Z,1006.89
2018-12-07T00:37:56.283Z,1006.90
2018-12-07T00:38:56.280Z,1006.83
2018-12-07T00:39:56.274Z,1006.82
2018-12-07T00:40:56.268Z,1006.84
2018-12-07T00:41:56.267Z,1006.83
2018-12-07T00:42:56.259Z,1006.82
2018-12-07T00:43:56.252Z,1006.82
2018-12-07T00:44:56.250Z,1006.82
2018-12-07T00:45:56.249Z,1006.89
2018-12-07T00:46:56.240Z,1006.90
2018-12-07T00:47:56.241Z,1006.89
2018-12-07T00:48:56.245Z,1006.91
2018-12-07T00:49:56.227Z,1006.90
2018-12-07T00:50:56.222Z,1006.92
2018-12-07T00:51:56.226Z,1006.95
2018-12-07T00:52:56.216Z,1006.92
2018-12-07T00:53:56.209Z,1006.92
2018-12-07T00:54:56.205Z,1006.93
2018-12-07T00:55:56.212Z,1006.91
2018-12-07T00:56:56.196Z,1006.90
2018-12-07T00:57:56.196Z,1006.94
2018-12-07T00:58:56.214Z,1006.90
2018-12-07T00:59:56.185Z,1006.89
2018-12-07T01:00:56.186Z,1006.93
2018-12-07T01:01:56.180Z,1006.93
2018-12-07T01:02:56.177Z,1006.90
2018-12-07T01:03:56.167Z,1006.93
2018-12-07T01:04:56.168Z,1006.94
2018-12-07T01:05:56.164Z,1006.93
2018-12-07T01:06:56.151Z,1007.00
2018-12-07T01:07:56.152Z,1007.02
2018-12-07T01:09:04.793Z,1006.93
2018-12-07T01:11:00.700Z,1006.94
2018-12-07T01:12:00.642Z,1006.95
2018-12-07T01:13:00.635Z,1006.90
2018-12-07T01:14:00.631Z,1006.98
2018-12-07T01:15:00.634Z,1006.96
2018-12-07T01:16:00.625Z,1006.91
2018-12-07T01:17:00.617Z,1006.94
2018-12-07T01:18:00.619Z,1006.91
2018-12-07T01:19:00.607Z,1006.85
2018-12-07T01:20:00.605Z,1006.91
2018-12-07T01:21:00.597Z,1006.91
2018-12-07T01:22:00.600Z,1006.89
2018-12-07T01:23:00.601Z,1006.89
2018-12-07T01:24:00.586Z,1006.85
2018-12-07T01:25:00.598Z,1006.88
2018-12-07T01:26:00.583Z,1006.87
2018-12-07T01:27:00.576Z,1006.81
2018-12-07T01:28:00.567Z,1006.89
2018-12-07T01:29:00.569Z,1006.94
2018-12-07T01:30:00.650Z,1006.83
2018-12-07T01:31:00.568Z,1006.92
2018-12-07T01:32:00.555Z,1006.90
2018-12-07T01:33:00.553Z,1006.87
2018-12-07T01:34:00.546Z,1006.87
2018-12-07T01:35:00.548Z,1006.86
2018-12-07T01:36:00.546Z,1006.84
2018-12-07T01:37:00.534Z,1006.83
2018-12-07T01:38:00.530Z,1006.83
2018-12-07T01:39:00.523Z,1006.81
2018-12-07T01:40:00.523Z,1006.79
2018-12-07T01:41:00.517Z,1006.70
2018-12-07T01:42:00.517Z,1006.76
2018-12-07T01:43:00.514Z,1006.70
2018-12-07T01:44:00.513Z,1006.71
2018-12-07T01:45:00.505Z,1006.67
2018-12-07T01:46:00.493Z,1006.72
2018-12-07T01:47:00.492Z,1006.61
2018-12-07T01:48:00.483Z,1006.61
2018-12-07T01:49:00.493Z,1006.61
2018-12-07T01:50:00.479Z,1006.59
2018-12-07T01:51:00.474Z,1006.58
2018-12-07T01:52:00.471Z,1006.49
2018-12-07T01:53:00.467Z,1006.50
2018-12-07T01:54:00.462Z,1006.45
2018-12-07T01:55:00.453Z,1006.45
2018-12-07T01:56:00.462Z,1006.47
2018-12-07T01:57:00.453Z,1006.51
2018-12-07T01:58:00.442Z,1006.47
2018-12-07T01:59:00.436Z,1006.51
2018-12-07T02:00:00.435Z,1006.50
2018-12-07T02:01:00.451Z,1006.47
2018-12-07T02:02:00.433Z,1006.44
2018-12-07T02:03:00.423Z,1006.44
2018-12-07T02:04:00.410Z,1006.41
2018-12-07T02:05:00.424Z,1006.40
2018-12-07T02:06:00.405Z,1006.41
2018-12-07T02:07:00.398Z,1006.40
2018-12-07T02:08:00.401Z,1006.38
2018-12-07T02:09:00.400Z,1006.36
2018-12-07T02:10:00.393Z,1006.39
2018-12-07T02:11:00.385Z,1006.31
2018-12-07T02:12:00.383Z,1006.32
2018-12-07T02:13:00.369Z,1006.33
2018-12-07T02:14:00.382Z,1006.29
2018-12-07T02:15:00.367Z,1006.29
2018-12-07T02:16:00.357Z,1006.30
2018-12-07T02:17:00.358Z,1006.27
2018-12-07T02:18:00.359Z,1006.33
2018-12-07T02:19:00.349Z,1006.27
2018-12-07T02:20:00.351Z,1006.31
2018-12-07T02:21:00.334Z,1006.29
2018-12-07T02:22:00.356Z,1006.32
2018-12-07T02:23:00.336Z,1006.36
2018-12-07T02:24:00.342Z,1006.29
2018-12-07T02:25:00.326Z,1006.23
2018-12-07T02:26:00.322Z,1006.20
2018-12-07T02:27:08.975Z,1006.17
2018-12-07T02:29:04.823Z,1006.20
2018-12-07T02:30:04.795Z,1006.14
2018-12-07T02:31:04.808Z,1006.18
2018-12-07T02:32:04.782Z,1006.14
2018-12-07T02:33:04.782Z,1006.11
2018-12-07T02:34:04.773Z,1006.03
2018-12-07T02:35:04.767Z,1006.05
2018-12-07T02:36:04.767Z,1006.00
2018-12-07T02:37:04.770Z,1005.97
2018-12-07T02:38:04.755Z,1005.92
2018-12-07T02:39:04.748Z,1005.88
2018-12-07T02:40:04.745Z,1005.79
2018-12-07T02:41:04.757Z,1005.82
2018-12-07T02:42:04.738Z,1005.78
2018-12-07T02:43:04.730Z,1005.82
2018-12-07T02:44:04.727Z,1005.76
2018-12-07T02:45:04.730Z,1005.77
2018-12-07T02:46:04.722Z,1005.75
2018-12-07T02:47:04.715Z,1005.80
2018-12-07T02:48:04.713Z,1005.69
2018-12-07T02:49:04.704Z,1005.71
2018-12-07T02:50:04.706Z,1005.76
2018-12-07T02:51:04.707Z,1005.67
2018-12-07T02:52:04.691Z,1005.65
2018-12-07T02:53:04.697Z,1005.68
2018-12-07T02:54:04.687Z,1005.67
2018-12-07T02:55:04.699Z,1005.65
2018-12-07T02:56:04.686Z,1005.62
2018-12-07T03:13:50.345Z,1005.45
2018-12-07T03:14:50.318Z,1005.49
2018-12-07T03:15:50.300Z,1005.48
2018-12-07T03:16:50.301Z,1005.38
2018-12-07T03:17:50.292Z,1005.42
2018-12-07T03:18:50.301Z,1005.45
2018-12-07T03:19:50.274Z,1005.33
2018-12-07T03:20:50.262Z,1005.37
2018-12-07T03:21:50.263Z,1005.36
2018-12-07T03:22:50.253Z,1005.38
2018-12-07T03:23:50.251Z,1005.37
2018-12-07T03:24:50.249Z,1005.32
2018-12-07T03:25:50.254Z,1005.39
2018-12-07T03:26:50.240Z,1005.35
2018-12-07T03:27:50.225Z,1005.36
2018-12-07T03:28:50.220Z,1005.35
2018-12-07T03:29:50.217Z,1005.29
2018-12-07T03:30:50.216Z,1005.36
2018-12-07T03:31:50.213Z,1005.38
2018-12-07T03:32:50.213Z,1005.38
2018-12-07T03:33:50.216Z,1005.37
2018-12-07T03:34:50.196Z,1005.36
2018-12-07T03:35:50.185Z,1005.41
2018-12-07T03:36:50.185Z,1005.42
2018-12-07T03:37:50.179Z,1005.38
2018-12-07T03:38:50.170Z,1005.40
2018-12-07T03:39:50.171Z,1005.45
2018-12-07T03:40:50.164Z,1005.41
2018-12-07T03:41:50.176Z,1005.41
2018-12-07T03:42:50.155Z,1005.43
2018-12-07T03:43:50.147Z,1005.42
2018-12-07T03:44:50.152Z,1005.43
2018-12-07T03:45:50.144Z,1005.41
2018-12-07T03:46:50.134Z,1005.40
2018-12-07T03:47:50.137Z,1005.41
2018-12-07T03:48:50.134Z,1005.37
2018-12-07T03:49:50.143Z,1005.32
2018-12-07T03:50:50.130Z,1005.37
2018-12-07T03:51:50.120Z,1005.33
2018-12-07T03:52:50.118Z,1005.37
2018-12-07T03:53:50.109Z,1005.29
2018-12-07T03:54:50.108Z,1005.35
2018-12-07T03:55:50.112Z,1005.37
2018-12-07T03:56:50.104Z,1005.30
2018-12-07T03:57:50.112Z,1005.28
2018-12-07T03:58:50.087Z,1005.18
2018-12-07T03:59:50.094Z,1005.31
2018-12-07T04:00:50.089Z,1005.29
2018-12-07T04:01:50.085Z,1005.24
2018-12-07T04:02:50.070Z,1005.29
2018-12-07T04:03:50.072Z,1005.30
2018-12-07T04:04:50.075Z,1005.30
2018-12-07T04:05:50.070Z,1005.27
2018-12-07T04:06:50.058Z,1005.27
2018-12-07T04:07:50.052Z,1005.23
2018-12-07T04:08:50.048Z,1005.18
2018-12-07T04:09:50.038Z,1005.23
2018-12-07T04:10:50.034Z,1005.18
2018-12-07T04:11:50.034Z,1005.20
2018-12-07T04:12:50.029Z,1005.21
2018-12-07T04:13:50.030Z,1005.19
2018-12-07T04:14:50.034Z,1005.22
2018-12-07T04:15:50.014Z,1005.13
2018-12-07T04:16:51.679Z,1005.16
2018-12-07T04:17:50.006Z,1005.18
2018-12-07T04:18:50.013Z,1005.17
2018-12-07T04:19:50.005Z,1005.14
2018-12-07T04:20:50.021Z,1005.12
2018-12-07T04:21:49.998Z,1005.09
2018-12-07T04:22:49.996Z,1005.11
2018-12-07T04:23:49.994Z,1005.08
2018-12-07T04:24:49.992Z,1005.11
2018-12-07T04:25:49.983Z,1005.12
2018-12-07T04:26:49.967Z,1005.13
2018-12-07T04:27:49.971Z,1005.14
2018-12-07T04:28:49.966Z,1005.10
2018-12-07T04:29:49.959Z,1005.13
2018-12-07T04:30:49.963Z,1005.10
2018-12-07T04:31:49.957Z,1005.14
2018-12-07T04:32:49.952Z,1005.17
2018-12-07T04:33:49.950Z,1005.17
2018-12-07T04:34:49.959Z,1005.25
2018-12-07T04:35:49.939Z,1005.24
2018-12-07T04:36:49.936Z,1005.19
2018-12-07T04:37:49.921Z,1005.16
2018-12-07T04:38:49.917Z,1005.14
2018-12-07T04:39:49.912Z,1005.24
2018-12-07T04:40:49.916Z,1005.15
2018-12-07T04:41:49.908Z,1005.14
2018-12-07T04:42:49.908Z,1005.15
2018-12-07T04:43:49.904Z,1005.08
2018-12-07T04:44:49.893Z,1005.12
2018-12-07T04:45:49.899Z,1005.07
2018-12-07T04:46:49.886Z,1005.13
2018-12-07T04:47:49.887Z,1005.07
2018-12-07T04:48:49.872Z,1005.12
2018-12-07T04:49:49.878Z,1005.05
2018-12-07T04:50:49.877Z,1004.98
2018-12-07T04:51:49.867Z,1005.06
2018-12-07T04:52:49.868Z,1004.88
2018-12-07T04:55:29.253Z,1005.04
2018-12-07T04:56:29.256Z,1004.91
2018-12-07T04:57:29.242Z,1004.99
2018-12-07T04:58:29.237Z,1004.86
2018-12-07T05:01:01.379Z,1004.92
2018-12-07T05:02:01.358Z,1004.90
2018-12-07T05:03:01.344Z,1004.94
2018-12-07T05:04:01.359Z,1004.89
2018-12-07T05:05:01.343Z,1004.87
2018-12-07T05:06:01.341Z,1004.88
2018-12-07T05:07:01.337Z,1004.90
2018-12-07T05:08:01.329Z,1004.90
2018-12-07T05:09:01.332Z,1004.88
2018-12-07T05:10:01.327Z,1004.93
2018-12-07T05:11:01.316Z,1004.86
2018-12-07T05:12:01.303Z,1004.86
2018-12-07T05:13:01.305Z,1004.90
2018-12-07T05:14:01.301Z,1004.87
2018-12-07T05:15:01.314Z,1004.90
2018-12-07T05:16:01.294Z,1004.83
2018-12-07T05:17:01.290Z,1004.83
2018-12-07T05:18:01.284Z,1004.87
2018-12-07T05:19:01.286Z,1004.82
2018-12-07T05:20:01.275Z,1004.83
2018-12-07T05:21:01.261Z,1004.81
2018-12-07T05:22:01.263Z,1004.73
2018-12-07T05:23:01.265Z,1004.71
2018-12-07T05:24:01.258Z,1004.73
2018-12-07T05:25:01.251Z,1004.73
2018-12-07T05:26:01.247Z,1004.75
2018-12-07T05:27:01.242Z,1004.74
2018-12-07T05:28:01.245Z,1004.78
2018-12-07T05:29:01.243Z,1004.80
2018-12-07T05:30:01.229Z,1004.81
2018-12-07T05:31:01.579Z,1004.77
2018-12-07T05:32:01.223Z,1004.79
2018-12-07T05:33:01.225Z,1004.77
2018-12-07T05:34:01.214Z,1004.78
2018-12-07T05:35:01.211Z,1004.77
2018-12-07T05:36:01.207Z,1004.76
2018-12-07T05:37:01.209Z,1004.74
2018-12-07T05:38:01.203Z,1004.71
2018-12-07T05:39:01.185Z,1004.70
2018-12-07T05:40:01.215Z,1004.71
2018-12-07T05:41:01.179Z,1004.66
2018-12-07T05:42:01.179Z,1004.67
2018-12-07T05:43:01.179Z,1004.67
2018-12-07T05:44:01.167Z,1004.67
2018-12-07T05:45:01.187Z,1004.69
2018-12-07T05:46:01.166Z,1004.68
2018-12-07T05:47:01.156Z,1004.69
2018-12-07T05:48:01.154Z,1004.66
2018-12-07T05:49:01.144Z,1004.64
2018-12-07T05:50:01.138Z,1004.64
2018-12-07T05:51:01.138Z,1004.64
2018-12-07T05:52:01.138Z,1004.62
2018-12-07T05:53:01.122Z,1004.57
2018-12-07T05:54:01.219Z,1004.58
2018-12-07T05:55:01.130Z,1004.58
2018-12-07T05:56:01.121Z,1004.58
2018-12-07T05:57:01.118Z,1004.58
2018-12-07T05:58:01.104Z,1004.55
2018-12-07T05:59:01.101Z,1004.50
2018-12-07T06:00:01.107Z,1004.51
2018-12-07T06:01:01.106Z,1004.49
2018-12-07T06:02:01.089Z,1004.43
2018-12-07T06:03:01.085Z,1004.45
2018-12-07T06:04:01.087Z,1004.46
2018-12-07T06:05:01.073Z,1004.48
2018-12-07T06:06:01.073Z,1004.49
2018-12-07T06:07:01.067Z,1004.46
2018-12-07T06:08:01.087Z,1004.43
2018-12-07T06:09:01.060Z,1004.46
2018-12-07T06:10:01.058Z,1004.44
2018-12-07T06:11:01.051Z,1004.43
2018-12-07T06:12:01.050Z,1004.40
2018-12-07T06:13:01.045Z,1004.37
2018-12-07T06:14:01.046Z,1004.39
2018-12-07T06:15:01.032Z,1004.38
2018-12-07T06:16:01.034Z,1004.36
2018-12-07T06:17:01.027Z,1004.32
2018-12-07T06:18:01.019Z,1004.35
2018-12-07T06:19:01.017Z,1004.33
2018-12-07T06:20:01.014Z,1004.37
2018-12-07T06:21:01.009Z,1004.35
2018-12-07T06:22:01.008Z,1004.30
2018-12-07T06:23:01.004Z,1004.34
2018-12-07T06:24:00.998Z,1004.38
2018-12-07T06:25:01.001Z,1004.31
2018-12-07T06:26:00.986Z,1004.29
2018-12-07T06:27:00.976Z,1004.28
2018-12-07T06:28:00.979Z,1004.18
2018-12-07T06:29:00.989Z,1004.25
2018-12-07T06:30:00.965Z,1004.16
2018-12-07T06:31:00.964Z,1004.13
2018-12-07T06:32:00.955Z,1004.17
2018-12-07T06:33:00.957Z,1004.12
2018-12-07T06:34:00.947Z,1004.15
2018-12-07T06:35:00.948Z,1004.14
2018-12-07T06:36:00.937Z,1004.16
2018-12-07T06:37:00.963Z,1004.13
2018-12-07T06:38:00.935Z,1004.09
2018-12-07T06:39:00.929Z,1004.09
2018-12-07T06:40:00.928Z,1004.08
2018-12-07T06:41:00.929Z,1004.08
2018-12-07T06:42:00.918Z,1004.08
2018-12-07T06:43:00.917Z,1004.05
2018-12-07T06:44:00.907Z,1004.02
2018-12-07T06:45:00.913Z,1004.01
2018-12-07T06:46:00.903Z,1004.02
2018-12-07T06:47:00.893Z,1003.98
2018-12-07T06:48:00.888Z,1003.99
2018-12-07T06:49:00.889Z,1004.01
2018-12-07T06:50:00.882Z,1003.98
2018-12-07T06:51:00.886Z,1003.96
2018-12-07T06:52:00.886Z,1003.95
2018-12-07T06:53:00.866Z,1003.95
2018-12-07T06:54:00.862Z,1003.96
2018-12-07T06:55:00.859Z,1003.97
2018-12-07T06:56:00.856Z,1003.97
2018-12-07T06:57:00.852Z,1003.94
2018-12-07T06:58:00.849Z,1003.94
2018-12-07T06:59:00.928Z,1003.95
2018-12-07T07:00:00.838Z,1003.95
2018-12-07T07:01:00.834Z,1003.94
2018-12-07T07:02:00.836Z,1003.91
2018-12-07T07:03:00.822Z,1003.91
2018-12-07T07:04:00.827Z,1003.86
2018-12-07T07:05:00.814Z,1003.87
2018-12-07T07:06:00.811Z,1003.91
2018-12-07T07:07:00.808Z,1003.90
2018-12-07T07:08:00.826Z,1003.92
2018-12-07T07:09:00.856Z,1003.94
2018-12-07T07:10:00.807Z,1003.84
2018-12-07T07:11:00.795Z,1003.93
2018-12-07T07:12:00.793Z,1003.91
2018-12-07T07:13:00.798Z,1003.89
2018-12-07T07:14:00.783Z,1003.88
2018-12-07T07:15:00.780Z,1003.92
2018-12-07T07:16:00.769Z,1003.87
2018-12-07T07:17:00.773Z,1003.91
2018-12-07T07:18:00.764Z,1003.83
2018-12-07T07:19:00.762Z,1003.84
2018-12-07T07:20:00.755Z,1003.80
2018-12-07T07:21:00.752Z,1003.84
2018-12-07T07:22:00.747Z,1003.76
2018-12-07T07:23:00.752Z,1003.78
2018-12-07T07:24:00.739Z,1003.82
2018-12-07T07:25:00.738Z,1003.71
2018-12-07T07:26:00.729Z,1003.78
2018-12-07T07:27:00.725Z,1003.71
2018-12-07T07:28:09.366Z,1003.75
2018-12-07T07:30:05.209Z,1003.68
2018-12-07T07:31:05.186Z,1003.68
2018-12-07T07:32:05.185Z,1003.63
2018-12-07T07:33:05.183Z,1003.63
2018-12-07T07:34:05.198Z,1003.58
2018-12-07T07:35:05.175Z,1003.57
2018-12-07T07:36:05.163Z,1003.58
2018-12-07T07:37:05.161Z,1003.55
2018-12-07T07:38:05.156Z,1003.52
2018-12-07T07:39:05.146Z,1003.54
2018-12-07T07:40:05.154Z,1003.51
2018-12-07T07:41:05.140Z,1003.51
2018-12-07T07:42:05.140Z,1003.47
2018-12-07T07:43:05.142Z,1003.53
2018-12-07T07:44:05.133Z,1003.47
2018-12-07T07:45:05.123Z,1003.47
2018-12-07T07:46:05.123Z,1003.40
2018-12-07T07:47:05.115Z,1003.34
2018-12-07T07:48:05.108Z,1003.31
2018-12-07T07:49:05.109Z,1003.36
2018-12-07T07:50:05.106Z,1003.28
2018-12-07T07:51:05.100Z,1003.29
2018-12-07T07:52:05.097Z,1003.27
2018-12-07T07:53:05.109Z,1003.15
2018-12-07T07:54:05.082Z,1003.32
2018-12-07T07:55:05.084Z,1003.31
2018-12-07T07:56:05.076Z,1003.20
2018-12-07T07:57:05.074Z,1003.36
2018-12-07T07:58:05.069Z,1003.26
2018-12-07T07:59:05.063Z,1003.23
2018-12-07T08:00:05.064Z,1003.22
2018-12-07T08:01:05.062Z,1003.22
2018-12-07T08:02:05.046Z,1003.24
2018-12-07T08:03:05.049Z,1003.21
2018-12-07T08:04:05.044Z,1003.22
2018-12-07T08:05:05.038Z,1003.20
2018-12-07T08:06:05.036Z,1003.12
2018-12-07T08:07:05.028Z,1003.11
2018-12-07T08:08:05.022Z,1003.12
2018-12-07T08:09:05.023Z,1003.07
2018-12-07T08:10:05.019Z,1003.11
2018-12-07T08:11:05.014Z,1003.06
2018-12-07T08:12:05.006Z,1003.10
2018-12-07T08:13:05.002Z,1003.05
2018-12-07T08:14:04.995Z,1003.02
2018-12-07T08:15:04.997Z,1003.02
2018-12-07T08:16:04.990Z,1002.96
2018-12-07T08:17:05.021Z,1003.05
2018-12-07T08:18:04.984Z,1002.90
2018-12-07T08:19:04.970Z,1003.03
2018-12-07T08:20:04.972Z,1002.99
2018-12-07T08:21:04.978Z,1002.94
2018-12-07T08:22:04.960Z,1002.89
2018-12-07T08:23:04.957Z,1002.94
2018-12-07T08:24:04.958Z,1002.96
2018-12-07T08:25:04.950Z,1002.94
2018-12-07T08:26:04.944Z,1002.94
2018-12-07T08:27:04.944Z,1002.90
2018-12-07T08:28:04.941Z,1002.93
2018-12-07T08:29:04.928Z,1002.82
2018-12-07T08:30:04.927Z,1002.78
2018-12-07T08:31:04.922Z,1002.80
2018-12-07T08:32:04.923Z,1002.76
2018-12-07T08:33:04.916Z,1002.79
2018-12-07T08:34:04.916Z,1002.79
2018-12-07T08:35:04.905Z,1002.82
2018-12-07T08:36:04.900Z,1002.80
2018-12-07T08:37:04.901Z,1002.66
2018-12-07T08:38:04.901Z,1002.78
2018-12-07T08:39:04.890Z,1002.77
2018-12-07T08:40:04.883Z,1002.73
2018-12-07T08:41:04.880Z,1002.70
2018-12-07T08:42:06.857Z,1002.69
2018-12-07T08:43:04.872Z,1002.73
2018-12-07T08:44:04.896Z,1002.71
2018-12-07T08:45:04.864Z,1002.67
2018-12-07T08:46:04.859Z,1002.67
2018-12-07T08:47:04.860Z,1002.69
2018-12-07T08:48:04.857Z,1002.75
2018-12-07T08:49:04.852Z,1002.73
2018-12-07T08:50:04.843Z,1002.71
2018-12-07T08:51:04.845Z,1002.74
2018-12-07T08:52:04.833Z,1002.72
2018-12-07T08:53:04.829Z,1002.73
2018-12-07T08:54:04.825Z,1002.75
2018-12-07T08:55:04.829Z,1002.71
2018-12-07T08:56:04.822Z,1002.75
2018-12-07T08:57:04.815Z,1002.68
2018-12-07T08:58:04.818Z,1002.75
2018-12-07T08:59:04.809Z,1002.79
2018-12-07T09:00:04.804Z,1002.70
2018-12-07T09:01:04.799Z,1002.69
2018-12-07T09:02:04.795Z,1002.65
2018-12-07T09:03:04.786Z,1002.69
2018-12-07T09:04:04.784Z,1002.75
2018-12-07T09:05:04.785Z,1002.72
2018-12-07T09:06:04.776Z,1002.68
2018-12-07T09:07:04.772Z,1002.67
2018-12-07T09:08:04.768Z,1002.71
2018-12-07T09:09:04.767Z,1002.64
2018-12-07T09:10:04.767Z,1002.68
2018-12-07T09:11:04.787Z,1002.61
2018-12-07T09:12:04.744Z,1002.63
2018-12-07T09:13:04.759Z,1002.61
2018-12-07T09:14:04.743Z,1002.59
2018-12-07T09:15:04.769Z,1002.65
2018-12-07T09:16:04.733Z,1002.59
2018-12-07T09:17:04.732Z,1002.62
2018-12-07T09:18:04.735Z,1002.55
2018-12-07T09:19:04.726Z,1002.56
2018-12-07T09:20:04.748Z,1002.49
2018-12-07T09:21:04.717Z,1002.51
2018-12-07T09:22:04.711Z,1002.52
2018-12-07T09:23:04.717Z,1002.51
2018-12-07T09:24:04.715Z,1002.57
2018-12-07T09:25:04.700Z,1002.49
2018-12-07T09:26:04.697Z,1002.52
2018-12-07T09:27:04.698Z,1002.51
2018-12-07T09:28:04.694Z,1002.52
2018-12-07T09:29:04.687Z,1002.50
2018-12-07T09:30:04.681Z,1002.53
2018-12-07T09:31:04.674Z,1002.54
2018-12-07T09:32:04.685Z,1002.61
2018-12-07T09:33:04.669Z,1002.52
2018-12-07T09:34:04.687Z,1002.48
2018-12-07T09:35:04.657Z,1002.51
2018-12-07T09:36:04.656Z,1002.48
2018-12-07T09:37:04.668Z,1002.42
2018-12-07T09:38:04.651Z,1002.43
2018-12-07T09:39:04.653Z,1002.42
2018-12-07T09:40:04.649Z,1002.37
2018-12-07T09:41:04.646Z,1002.27
2018-12-07T09:42:04.649Z,1002.28
2018-12-07T09:43:04.657Z,1002.34
2018-12-07T09:44:04.628Z,1002.28
2018-12-07T09:45:04.633Z,1002.29
2018-12-07T09:46:04.628Z,1002.28
2018-12-07T09:47:04.624Z,1002.25
2018-12-07T09:48:04.613Z,1002.18
2018-12-07T09:49:04.613Z,1002.22
2018-12-07T09:50:04.608Z,1002.20
2018-12-07T09:51:04.614Z,1002.27
2018-12-07T09:52:04.598Z,1002.14
2018-12-07T09:53:04.600Z,1002.18
2018-12-07T09:54:04.586Z,1002.18
2018-12-07T09:55:04.591Z,1002.17
2018-12-07T09:56:04.580Z,1002.16
2018-12-07T09:57:04.583Z,1002.10
2018-12-07T09:58:04.573Z,1002.05
2018-12-07T09:59:04.577Z,1002.13
2018-12-07T10:00:04.573Z,1002.09
2018-12-07T10:01:04.564Z,1002.01
2018-12-07T10:02:04.564Z,1002.14
2018-12-07T10:03:04.599Z,1002.09
2018-12-07T10:04:04.559Z,1002.05
2018-12-07T10:05:04.550Z,1002.06
2018-12-07T10:06:04.550Z,1002.01
2018-12-07T10:07:04.544Z,1002.09
2018-12-07T10:08:04.553Z,1002.01
2018-12-07T10:09:04.538Z,1002.02
2018-12-07T10:10:04.534Z,1002.02
2018-12-07T10:11:04.536Z,1002.06
2018-12-07T10:12:04.529Z,1002.05
2018-12-07T10:13:07.857Z,1002.03
2018-12-07T10:14:04.534Z,1002.02
2018-12-07T10:15:04.532Z,1002.01
2018-12-07T10:16:04.512Z,1002.04
2018-12-07T10:17:04.506Z,1002.01
2018-12-07T10:18:04.503Z,1002.02
2018-12-07T10:19:04.493Z,1002.00
2018-12-07T10:20:04.501Z,1002.02
2018-12-07T10:21:04.489Z,1001.95
2018-12-07T10:22:04.489Z,1001.94
2018-12-07T10:23:04.480Z,1001.88
2018-12-07T10:24:04.479Z,1001.88
2018-12-07T10:25:04.473Z,1001.81
2018-12-07T10:26:04.474Z,1001.86
2018-12-07T10:27:04.472Z,1001.83
2018-12-07T10:28:04.470Z,1001.79
2018-12-07T10:29:04.461Z,1001.74
2018-12-07T10:30:04.467Z,1001.70
2018-12-07T10:31:04.451Z,1001.74
2018-12-07T10:32:04.452Z,1001.61
2018-12-07T10:33:04.445Z,1001.74
2018-12-07T10:34:04.438Z,1001.63
2018-12-07T10:35:04.439Z,1001.65
2018-12-07T10:36:04.439Z,1001.64
2018-12-07T10:37:04.455Z,1001.59
2018-12-07T10:38:04.430Z,1001.60
2018-12-07T10:39:04.428Z,1001.59
2018-12-07T10:40:04.422Z,1001.57
2018-12-07T10:41:04.424Z,1001.61
2018-12-07T10:42:04.408Z,1001.49
2018-12-07T10:43:04.403Z,1001.48
2018-12-07T10:44:04.401Z,1001.43
2018-12-07T10:45:04.404Z,1001.46
2018-12-07T10:46:04.400Z,1001.45
2018-12-07T10:47:04.395Z,1001.38
2018-12-07T10:48:04.393Z,1001.36
2018-12-07T10:49:04.390Z,1001.32
2018-12-07T10:50:04.382Z,1001.31
2018-12-07T10:51:07.893Z,1001.27
2018-12-07T10:52:04.381Z,1001.21
2018-12-07T10:53:04.380Z,1001.21
2018-12-07T10:54:04.366Z,1001.21
2018-12-07T10:55:04.366Z,1001.22
2018-12-07T10:56:04.371Z,1001.16
2018-12-07T10:57:04.355Z,1001.11
2018-12-07T10:58:04.355Z,1001.14
2018-12-07T10:59:04.350Z,1001.18
2018-12-07T11:00:04.347Z,1001.11
2018-12-07T11:01:04.349Z,1001.08
2018-12-07T11:02:04.341Z,1001.02
2018-12-07T11:03:04.333Z,1001.06
2018-12-07T11:04:04.329Z,1001.09
2018-12-07T11:05:04.409Z,1001.04
2018-12-07T11:06:04.320Z,1001.08
2018-12-07T11:07:04.317Z,1001.01
2018-12-07T11:08:04.321Z,1001.03
2018-12-07T11:09:04.312Z,1000.99
2018-12-07T11:10:04.310Z,1000.95
2018-12-07T11:11:04.303Z,1000.91
2018-12-07T11:12:04.299Z,1000.94
2018-12-07T11:13:04.290Z,1000.99
2018-12-07T11:14:04.285Z,1000.92
2018-12-07T11:15:04.286Z,1000.90
2018-12-07T11:16:04.283Z,1000.89
2018-12-07T11:17:04.284Z,1000.86
2018-12-07T11:18:04.278Z,1000.83
2018-12-07T11:19:04.273Z,1000.84
2018-12-07T11:20:04.267Z,1000.83
2018-12-07T11:21:04.263Z,1000.77
2018-12-07T11:22:04.253Z,1000.82
2018-12-07T11:23:04.259Z,1000.67
2018-12-07T11:24:04.251Z,1000.80
2018-12-07T11:25:04.248Z,1000.65
2018-12-07T11:26:04.247Z,1000.71
2018-12-07T11:27:04.240Z,1000.73
2018-12-07T11:28:04.236Z,1000.66
2018-12-07T11:29:04.254Z,1000.69
2018-12-07T11:30:04.230Z,1000.68
2018-12-07T11:31:04.223Z,1000.61
2018-12-07T11:32:04.220Z,1000.57
2018-12-07T11:33:04.216Z,1000.56
2018-12-07T11:34:04.212Z,1000.54
2018-12-07T11:35:04.209Z,1000.55
2018-12-07T11:36:08.098Z,1000.50
2018-12-07T11:37:04.205Z,1000.54
2018-12-07T11:38:04.202Z,1000.48
2018-12-07T11:39:04.192Z,1000.47
2018-12-07T11:40:04.196Z,1000.39
2018-12-07T11:41:04.191Z,1000.45
2018-12-07T11:42:04.181Z,1000.33
2018-12-07T11:43:04.180Z,1000.33
2018-12-07T11:44:04.174Z,1000.30
2018-12-07T11:45:04.178Z,1000.33
2018-12-07T11:46:04.165Z,1000.35
2018-12-07T11:47:04.159Z,1000.28
2018-12-07T11:48:04.157Z,1000.33
2018-12-07T11:49:04.158Z,1000.35
2018-12-07T11:50:04.154Z,1000.30
2018-12-07T11:51:04.144Z,1000.28
2018-12-07T11:52:04.142Z,1000.24
2018-12-07T11:53:04.138Z,1000.26
2018-12-07T11:54:04.135Z,1000.24
2018-12-07T11:55:04.130Z,1000.18
2018-12-07T11:56:04.125Z,1000.18
2018-12-07T11:57:04.123Z,1000.14
2018-12-07T11:58:04.117Z,1000.13
2018-12-07T11:59:04.114Z,1000.14
2018-12-07T12:00:04.110Z,1000.12
2018-12-07T12:01:04.108Z,1000.02
2018-12-07T12:02:04.095Z,999.97
2018-12-07T12:03:04.096Z,999.83
2018-12-07T12:04:04.092Z,999.88
2018-12-07T12:05:04.094Z,999.88
2018-12-07T12:06:04.086Z,999.76
2018-12-07T12:07:04.077Z,999.81
2018-12-07T12:08:04.077Z,999.79
2018-12-07T12:09:04.078Z,999.81
2018-12-07T12:10:04.067Z,999.73
2018-12-07T12:11:04.067Z,999.67
2018-12-07T12:12:04.057Z,999.65
2018-12-07T12:13:04.059Z,999.63
2018-12-07T12:14:04.048Z,999.63
2018-12-07T12:15:04.053Z,999.57
2018-12-07T12:16:04.040Z,999.51
2018-12-07T12:17:04.035Z,999.45
2018-12-07T12:18:04.034Z,999.46
2018-12-07T12:19:04.035Z,999.41
2018-12-07T12:20:04.027Z,999.44
2018-12-07T12:21:04.028Z,999.38
2018-12-07T12:22:04.021Z,999.41
2018-12-07T12:23:04.019Z,999.36
2018-12-07T12:24:04.012Z,999.36
2018-12-07T12:25:04.009Z,999.30
2018-12-07T12:26:04.000Z,999.33
2018-12-07T12:27:03.999Z,999.25
2018-12-07T12:28:03.993Z,999.28
2018-12-07T12:29:03.995Z,999.25
2018-12-07T12:30:03.990Z,999.08
2018-12-07T12:31:03.981Z,999.15
2018-12-07T12:32:03.980Z,999.14
2018-12-07T12:33:04.026Z,999.08
2018-12-07T12:34:03.970Z,998.96
2018-12-07T12:35:03.968Z,999.00
2018-12-07T12:36:03.963Z,999.01
2018-12-07T12:37:03.959Z,999.01
2018-12-07T12:38:03.956Z,998.93
2018-12-07T12:39:03.951Z,998.92